Time;durP1;ratioP1;P1;durP2;ratioP2;P2;SDS_P1;SDS_P2;PMS_P1;PMS_P2;Temp;Humidity;BMP_temperature;BMP_pressure;BME280_temperature;BME280_humidity;BME280_pressure;Samples;Min_cycle;Max_cycle;Signal;HPM_P1;HPM_P2
2022/01/05 00:01:35;;;;;;;4.47;4.07;;;5.70;99.90;;;;;;5074448;28;20205;-95
2022/01/05 00:04:01;;;;;;;5.50;3.87;;;5.60;99.90;;;;;;5074363;28;20194;-92
2022/01/05 00:06:27;;;;;;;4.70;3.87;;;5.60;99.90;;;;;;5074711;28;20178;-93
2022/01/05 00:08:53;;;;;;;4.07;3.77;;;5.80;99.90;;;;;;5074890;28;20214;-92
2022/01/05 00:11:18;;;;;;;5.43;4.20;;;5.90;99.90;;;;;;5074411;28;20198;-93
2022/01/05 00:13:44;;;;;;;7.83;4.07;;;5.90;99.90;;;;;;5074564;28;20176;-94
2022/01/05 00:16:10;;;;;;;6.80;4.30;;;6.00;99.90;;;;;;5075639;28;20169;-91
2022/01/05 00:18:36;;;;;;;3.73;3.43;;;5.90;99.90;;;;;;5096967;28;20198;-90
2022/01/05 00:21:04;;;;;;;4.10;3.70;;;6.00;99.90;;;;;;5095467;28;20183;-88
2022/01/05 00:23:30;;;;;;;4.40;4.00;;;6.00;99.90;;;;;;5087084;28;20164;-87
2022/01/05 00:25:56;;;;;;;6.90;4.47;;;6.00;99.90;;;;;;5073993;28;20724;-88
2022/01/05 00:28:22;;;;;;;6.00;4.27;;;6.00;99.90;;;;;;5073113;28;20207;-89
2022/01/05 00:30:48;;;;;;;6.77;3.63;;;6.00;99.90;;;;;;5055885;28;20638;-90
2022/01/05 00:33:15;;;;;;;6.47;4.13;;;6.00;99.90;;;;;;5074486;28;20668;-96
2022/01/05 00:35:41;;;;;;;5.50;4.33;;;5.90;99.90;;;;;;5074309;28;20164;-93
2022/01/05 00:38:07;;;;;;;4.70;4.17;;;5.80;99.90;;;;;;5075603;28;20175;-93
2022/01/05 00:40:33;;;;;;;4.77;3.93;;;5.80;99.90;;;;;;5076041;28;20171;-95
2022/01/05 00:42:59;;;;;;;6.50;4.20;;;5.80;99.90;;;;;;5074778;28;20264;-92
2022/01/05 00:45:25;;;;;;;5.00;4.10;;;5.80;99.90;;;;;;5074313;28;20209;-93
2022/01/05 00:47:51;;;;;;;6.00;3.87;;;5.70;99.90;;;;;;5074895;28;20178;-94
2022/01/05 00:50:17;;;;;;;4.57;4.07;;;5.70;99.90;;;;;;5076872;28;20229;-90
2022/01/05 00:52:42;;;;;;;3.77;3.47;;;5.60;99.90;;;;;;5056353;28;20249;-93
2022/01/05 00:55:09;;;;;;;4.30;3.90;;;5.60;99.90;;;;;;5074747;28;20171;-94
2022/01/05 00:57:34;;;;;;;4.37;3.97;;;5.50;99.90;;;;;;5074674;28;20168;-93
2022/01/05 01:00:01;;;;;;;5.13;4.10;;;5.50;99.90;;;;;;5074684;28;20312;-92
2022/01/05 01:02:26;;;;;;;5.57;3.90;;;5.50;99.90;;;;;;5074357;28;20177;-91
2022/01/05 01:04:52;;;;;;;4.37;3.97;;;5.50;99.90;;;;;;5063396;28;20179;-95
2022/01/05 01:07:18;;;;;;;5.90;3.83;;;5.40;99.90;;;;;;5078903;28;20626;-90
2022/01/05 01:09:44;;;;;;;3.97;3.67;;;5.40;99.90;;;;;;5074369;28;20232;-96
2022/01/05 01:12:10;;;;;;;4.23;3.93;;;5.40;99.90;;;;;;5074264;28;20217;-96
2022/01/05 01:14:36;;;;;;;4.23;3.90;;;5.20;99.90;;;;;;5074789;28;20181;-95
2022/01/05 01:17:02;;;;;;;4.07;3.70;;;5.30;99.90;;;;;;5080753;28;20182;-95
2022/01/05 01:19:28;;;;;;;5.10;3.87;;;5.30;99.90;;;;;;5094908;28;20163;-88
2022/01/05 01:21:55;;;;;;;5.67;4.67;;;5.30;99.90;;;;;;5096014;28;20223;-90
2022/01/05 01:24:21;;;;;;;4.67;4.17;;;5.20;99.90;;;;;;5061774;28;20179;-89
2022/01/05 01:26:48;;;;;;;4.93;3.87;;;5.20;99.90;;;;;;5074339;28;20198;-85
2022/01/05 01:29:14;;;;;;;7.80;4.10;;;5.20;99.90;;;;;;5071716;28;20184;-88
2022/01/05 01:31:40;;;;;;;4.67;4.00;;;5.20;99.90;;;;;;5071460;28;20206;-86
2022/01/05 01:34:05;;;;;;;4.93;4.10;;;5.20;99.90;;;;;;5053131;28;20889;-82
2022/01/05 01:36:31;;;;;;;5.57;4.07;;;5.20;99.90;;;;;;5070039;28;20580;-82
2022/01/05 01:38:59;;;;;;;5.80;3.90;;;5.20;99.90;;;;;;5058598;28;20185;-82
2022/01/05 01:41:25;;;;;;;5.53;4.17;;;5.20;99.90;;;;;;5075823;28;20873;-83
2022/01/05 01:43:50;;;;;;;4.63;3.97;;;5.20;99.90;;;;;;5057873;28;20180;-92
2022/01/05 01:46:17;;;;;;;4.43;4.00;;;5.20;99.90;;;;;;5054449;28;20186;-88
2022/01/05 01:48:43;;;;;;;8.27;3.50;;;5.20;99.90;;;;;;5071233;28;20166;-94
2022/01/05 01:51:09;;;;;;;3.93;3.63;;;5.00;99.90;;;;;;5072354;28;20210;-85
2022/01/05 01:53:35;;;;;;;5.90;4.07;;;5.00;99.90;;;;;;5072006;28;20174;-91
2022/01/05 01:56:02;;;;;;;5.10;3.70;;;5.10;99.90;;;;;;5072077;28;20255;-87
2022/01/05 01:58:33;;;;;;;4.80;3.80;;;5.30;99.90;;;;;;5071420;28;20638;-81
2022/01/05 02:00:59;;;;;;;4.03;3.63;;;5.30;99.90;;;;;;5071815;28;20160;-93
2022/01/05 02:03:25;;;;;;;4.53;3.70;;;5.30;99.90;;;;;;5076301;28;20188;-91
2022/01/05 02:05:50;;;;;;;3.97;3.57;;;5.20;99.90;;;;;;5094945;28;20187;-84
2022/01/05 02:08:16;;;;;;;5.97;3.60;;;5.30;99.90;;;;;;5091270;28;20186;-93
2022/01/05 02:10:43;;;;;;;4.87;4.43;;;5.50;99.90;;;;;;5073383;28;20175;-91
2022/01/05 02:13:09;;;;;;;4.50;3.23;;;5.30;99.90;;;;;;5071755;28;20416;-89
2022/01/05 02:15:35;;;;;;;6.63;4.10;;;5.40;99.90;;;;;;5072321;28;20244;-88
2022/01/05 02:20:29;;;;;;;4.67;3.20;;;5.40;99.90;;;;;;5073846;28;20618;-94
2022/01/05 02:22:56;;;;;;;4.27;3.87;;;5.40;99.90;;;;;;5076661;28;20167;-89
2022/01/05 02:25:23;;;;;;;5.73;3.87;;;5.30;99.90;;;;;;5075491;28;20179;-84
2022/01/05 02:27:50;;;;;;;4.57;3.53;;;5.30;99.90;;;;;;5078619;28;20167;-95
2022/01/05 02:30:28;;;;;;;4.30;3.40;;;5.30;99.90;;;;;;5076532;28;20261;-87
2022/01/05 02:32:55;;;;;;;3.53;3.23;;;5.40;99.90;;;;;;5075644;28;20252;-83
2022/01/05 02:35:21;;;;;;;4.73;3.40;;;5.50;99.90;;;;;;5076045;28;20159;-94
2022/01/05 02:37:52;;;;;;;4.50;3.30;;;5.40;99.90;;;;;;5058447;28;20882;-95
2022/01/05 02:40:20;;;;;;;3.63;3.33;;;5.50;99.90;;;;;;5074720;28;20159;-92
2022/01/05 02:42:46;;;;;;;3.83;3.10;;;5.60;99.90;;;;;;5056687;28;20175;-92
2022/01/05 02:45:14;;;;;;;3.10;2.90;;;5.40;99.90;;;;;;5073760;28;20634;-83
2022/01/05 02:47:41;;;;;;;3.10;2.80;;;5.40;99.90;;;;;;5072878;28;20235;-82
2022/01/05 02:50:08;;;;;;;3.30;3.00;;;5.60;99.90;;;;;;5072772;28;20254;-82
2022/01/05 02:52:35;;;;;;;4.93;3.03;;;5.50;99.90;;;;;;5055116;28;20263;-85
2022/01/05 02:55:02;;;;;;;3.97;3.10;;;5.50;99.90;;;;;;5072542;28;20626;-82
2022/01/05 02:57:29;;;;;;;3.63;3.33;;;5.60;99.90;;;;;;5072799;28;20175;-81
2022/01/05 02:59:55;;;;;;;3.13;2.90;;;5.50;99.90;;;;;;5072873;28;20212;-82
2022/01/05 03:02:21;;;;;;;4.63;3.30;;;5.60;99.90;;;;;;5072511;28;20198;-82
2022/01/05 03:04:47;;;;;;;3.50;3.27;;;5.70;99.90;;;;;;5072563;28;20849;-82
2022/01/05 03:07:15;;;;;;;3.17;2.87;;;5.60;99.90;;;;;;5072368;28;20204;-81
2022/01/05 03:09:41;;;;;;;4.13;3.00;;;5.50;99.90;;;;;;5054230;28;20585;-82
2022/01/05 03:12:07;;;;;;;3.03;2.83;;;5.50;99.90;;;;;;5072569;28;20211;-81
2022/01/05 03:14:33;;;;;;;4.23;3.03;;;5.50;99.90;;;;;;5072441;28;20301;-82
2022/01/05 03:16:59;;;;;;;6.07;3.17;;;5.60;99.90;;;;;;5072544;28;20276;-84
2022/01/05 03:19:25;;;;;;;3.43;3.10;;;5.50;99.90;;;;;;5072849;28;20568;-83
2022/01/05 03:21:50;;;;;;;3.80;3.13;;;5.50;99.90;;;;;;5072561;28;20749;-82
2022/01/05 03:24:16;;;;;;;3.77;3.37;;;5.50;99.90;;;;;;5071800;28;20239;-82
2022/01/05 03:26:42;;;;;;;3.73;3.20;;;5.50;99.90;;;;;;5075007;28;20329;-82
2022/01/05 03:29:08;;;;;;;6.57;3.47;;;5.40;99.90;;;;;;5074020;28;20186;-85
2022/01/05 03:31:33;;;;;;;3.87;3.30;;;5.40;99.90;;;;;;5075431;28;20244;-86
2022/01/05 03:33:59;;;;;;;5.13;3.20;;;5.30;99.90;;;;;;5076268;28;20338;-95
2022/01/05 03:36:25;;;;;;;3.97;3.60;;;5.30;99.90;;;;;;5059300;28;20188;-95
2022/01/05 03:38:51;;;;;;;5.10;3.30;;;5.20;99.90;;;;;;5039053;28;20183;-89
2022/01/05 03:41:17;;;;;;;3.57;3.27;;;5.30;99.90;;;;;;5057186;28;20176;-95
2022/01/05 03:43:43;;;;;;;3.70;3.33;;;5.30;99.90;;;;;;5065922;28;20175;-95
2022/01/05 03:46:09;;;;;;;5.63;3.70;;;5.20;99.90;;;;;;5057393;28;20174;-94
2022/01/05 03:48:34;;;;;;;3.37;3.07;;;5.20;99.90;;;;;;5071610;28;20174;-96
2022/01/05 03:51:00;;;;;;;3.40;3.10;;;5.20;99.90;;;;;;5080120;28;20222;-90
2022/01/05 03:53:26;;;;;;;6.93;3.07;;;5.10;99.90;;;;;;5078660;28;20183;-89
2022/01/05 03:55:52;;;;;;;4.77;3.50;;;5.20;99.90;;;;;;5072873;28;20188;-96
2022/01/05 03:58:18;;;;;;;3.67;3.23;;;5.30;99.90;;;;;;5058030;28;20247;-94
2022/01/05 04:00:49;;;;;;;4.07;3.60;;;5.30;99.90;;;;;;5040399;28;20275;-96
2022/01/05 04:03:16;;;;;;;5.37;3.50;;;5.20;99.90;;;;;;5056596;28;20691;-96
2022/01/05 04:05:42;;;;;;;4.20;3.50;;;5.30;99.90;;;;;;5058498;28;20175;-95
2022/01/05 04:08:08;;;;;;;4.10;3.50;;;5.20;99.90;;;;;;5047845;28;20176;-94
2022/01/05 04:10:34;;;;;;;4.87;3.53;;;5.20;99.90;;;;;;5086606;28;20181;-95
2022/01/05 04:13:01;;;;;;;5.30;3.10;;;5.20;99.90;;;;;;5096196;28;20183;-91
2022/01/05 04:15:27;;;;;;;8.07;3.80;;;5.30;99.90;;;;;;5089206;28;20182;-92
2022/01/05 04:17:53;;;;;;;4.20;3.53;;;5.30;99.90;;;;;;5079615;28;20669;-92
2022/01/05 04:20:19;;;;;;;6.83;4.00;;;5.20;99.90;;;;;;5074694;28;20259;-84
2022/01/05 04:22:46;;;;;;;5.50;3.83;;;5.20;99.90;;;;;;5072901;28;20170;-86
2022/01/05 04:25:13;;;;;;;3.97;3.67;;;5.30;99.90;;;;;;5054649;28;20183;-92
2022/01/05 04:27:39;;;;;;;6.07;3.77;;;5.30;99.90;;;;;;5073669;28;20165;-87
2022/01/05 04:30:07;;;;;;;5.37;3.47;;;5.30;99.90;;;;;;5073428;28;20204;-89
2022/01/05 04:32:34;;;;;;;5.20;3.67;;;5.30;99.90;;;;;;5073357;28;20233;-89
2022/01/05 04:35:00;;;;;;;3.50;3.20;;;5.30;99.90;;;;;;5056063;28;20183;-84
2022/01/05 04:37:27;;;;;;;6.00;3.33;;;5.30;99.90;;;;;;5074345;28;20176;-83
2022/01/05 04:39:53;;;;;;;6.03;3.47;;;5.30;99.90;;;;;;5073150;28;20213;-96
2022/01/05 04:42:19;;;;;;;3.50;3.20;;;5.30;99.90;;;;;;5074040;28;20743;-83
2022/01/05 04:44:45;;;;;;;3.80;3.30;;;5.30;99.90;;;;;;5054987;28;20270;-84
2022/01/05 04:47:12;;;;;;;16.83;8.97;;;5.30;99.90;;;;;;5073635;28;20179;-85
2022/01/05 04:49:39;;;;;;;5.57;3.73;;;5.40;99.90;;;;;;5072859;28;20217;-90
2022/01/05 04:52:04;;;;;;;7.20;3.60;;;5.40;99.90;;;;;;5075645;28;20674;-91
2022/01/05 04:54:30;;;;;;;7.27;3.57;;;5.40;99.90;;;;;;5077763;28;20240;-95
2022/01/05 04:56:56;;;;;;;4.57;3.33;;;5.50;99.90;;;;;;5084844;28;20221;-91
2022/01/05 04:59:22;;;;;;;4.47;3.60;;;5.50;99.90;;;;;;5055905;28;20540;-83
2022/01/05 05:01:48;;;;;;;3.90;3.47;;;5.50;99.90;;;;;;5071411;28;20275;-84
2022/01/05 05:04:14;;;;;;;8.60;3.87;;;5.50;99.90;;;;;;5071461;28;20171;-83
2022/01/05 05:06:40;;;;;;;4.40;3.70;;;5.50;99.90;;;;;;5071144;28;20700;-82
2022/01/05 05:09:05;;;;;;;7.03;3.47;;;5.50;99.90;;;;;;5070993;28;20174;-84
2022/01/05 05:11:31;;;;;;;3.40;3.07;;;5.50;99.90;;;;;;5052764;28;20219;-82
2022/01/05 05:13:57;;;;;;;5.13;3.37;;;5.50;99.90;;;;;;5070962;28;20181;-82
2022/01/05 05:16:22;;;;;;;6.27;3.47;;;5.40;99.90;;;;;;5071351;28;20184;-94
2022/01/05 05:18:48;;;;;;;3.73;3.43;;;5.50;99.90;;;;;;5082790;28;20179;-90
2022/01/05 05:21:14;;;;;;;5.07;3.27;;;5.40;99.90;;;;;;5093856;28;20159;-85
2022/01/05 05:23:40;;;;;;;5.57;3.60;;;5.40;99.90;;;;;;5093353;28;20580;-96
2022/01/05 05:26:05;;;;;;;6.77;3.70;;;5.30;99.90;;;;;;5081824;28;20168;-96
2022/01/05 05:28:31;;;;;;;4.80;3.40;;;5.30;99.90;;;;;;5079248;28;20224;-96
2022/01/05 05:30:57;;;;;;;3.37;3.07;;;5.30;99.90;;;;;;5075325;28;20202;-93
2022/01/05 05:33:22;;;;;;;3.60;2.87;;;5.40;99.90;;;;;;5062744;28;20238;-95
2022/01/05 05:35:48;;;;;;;3.50;3.00;;;5.40;99.90;;;;;;5054692;28;20164;-93
2022/01/05 05:38:15;;;;;;;5.03;3.30;;;5.60;99.90;;;;;;5036461;28;20176;-96
2022/01/05 05:40:42;;;;;;;3.87;3.40;;;5.60;99.90;;;;;;5056334;28;20222;-94
2022/01/05 05:43:08;;;;;;;5.30;3.23;;;5.50;99.90;;;;;;5089769;28;20180;-89
2022/01/05 05:45:34;;;;;;;3.70;3.40;;;5.60;99.90;;;;;;5095436;28;20173;-85
2022/01/05 05:48:00;;;;;;;6.17;3.30;;;5.60;99.90;;;;;;5080558;28;20189;-88
2022/01/05 05:50:26;;;;;;;3.47;3.17;;;5.60;99.90;;;;;;5073944;28;20229;-94
2022/01/05 05:52:52;;;;;;;7.80;3.30;;;5.60;99.90;;;;;;5077567;28;20534;-82
2022/01/05 05:55:18;;;;;;;5.50;3.50;;;5.50;99.90;;;;;;5067489;28;20201;-94
2022/01/05 05:57:44;;;;;;;3.60;3.30;;;5.50;99.90;;;;;;5063246;28;20270;-91
2022/01/05 06:00:10;;;;;;;3.10;2.90;;;5.50;99.90;;;;;;5076580;28;20181;-89
2022/01/05 06:02:37;;;;;;;3.30;2.80;;;5.50;99.90;;;;;;5075464;28;20168;-83
2022/01/05 06:05:03;;;;;;;3.57;3.27;;;5.60;99.90;;;;;;5056851;28;20181;-87
2022/01/05 06:07:29;;;;;;;3.40;3.10;;;5.60;99.90;;;;;;5075065;28;20175;-84
2022/01/05 06:09:54;;;;;;;3.40;3.10;;;5.60;99.90;;;;;;5074704;28;20179;-81
2022/01/05 06:12:20;;;;;;;4.87;3.30;;;5.50;99.90;;;;;;5074681;28;20199;-85
2022/01/05 06:14:46;;;;;;;5.57;3.63;;;5.60;99.90;;;;;;5074813;28;20246;-88
2022/01/05 06:17:12;;;;;;;4.67;3.80;;;5.60;99.90;;;;;;5056588;28;20186;-88
2022/01/05 06:19:37;;;;;;;4.40;3.37;;;5.60;99.90;;;;;;5076922;28;20171;-91
2022/01/05 06:22:03;;;;;;;3.63;3.33;;;5.50;99.90;;;;;;5076510;28;20178;-93
2022/01/05 06:24:29;;;;;;;3.77;3.47;;;5.60;99.90;;;;;;5076720;28;20265;-89
2022/01/05 06:26:55;;;;;;;4.80;3.57;;;5.60;99.90;;;;;;5077866;28;20185;-94
2022/01/05 06:29:21;;;;;;;4.30;3.37;;;5.70;99.90;;;;;;5075583;28;20183;-92
2022/01/05 06:31:47;;;;;;;5.20;3.37;;;5.80;99.90;;;;;;5042025;28;20243;-93
2022/01/05 06:34:13;;;;;;;4.43;3.83;;;5.80;99.90;;;;;;5076436;28;20202;-93
2022/01/05 06:36:39;;;;;;;3.80;3.40;;;5.80;99.90;;;;;;5082226;28;20188;-85
2022/01/05 06:39:05;;;;;;;3.57;3.27;;;5.80;99.90;;;;;;5092526;28;20534;-94
2022/01/05 06:41:31;;;;;;;3.30;3.10;;;5.90;99.90;;;;;;5063711;28;20226;-83
2022/01/05 06:43:57;;;;;;;3.90;3.10;;;5.90;99.90;;;;;;5061201;28;20191;-92
2022/01/05 06:46:22;;;;;;;4.30;3.40;;;6.00;99.90;;;;;;5092776;28;20190;-93
2022/01/05 06:48:49;;;;;;;3.73;3.10;;;6.10;99.90;;;;;;5081063;28;20558;-95
2022/01/05 06:51:14;;;;;;;3.20;3.00;;;6.10;99.90;;;;;;5080938;28;20223;-95
2022/01/05 06:53:40;;;;;;;3.30;3.03;;;6.00;99.90;;;;;;5078694;28;20258;-90
2022/01/05 06:56:06;;;;;;;3.30;2.97;;;6.00;99.90;;;;;;5090583;28;20187;-82
2022/01/05 06:58:32;;;;;;;3.60;3.30;;;6.10;99.90;;;;;;5056605;28;20620;-81
2022/01/05 07:00:58;;;;;;;4.10;3.80;;;6.10;99.90;;;;;;5074630;28;20171;-82
2022/01/05 07:03:24;;;;;;;3.80;3.50;;;6.20;99.90;;;;;;5060191;28;20178;-89
2022/01/05 07:05:50;;;;;;;3.20;3.00;;;6.20;99.90;;;;;;5074693;28;20187;-81
2022/01/05 07:08:15;;;;;;;3.80;3.33;;;6.20;99.90;;;;;;5076087;28;20171;-81
2022/01/05 07:10:41;;;;;;;3.60;3.30;;;6.40;99.90;;;;;;5074857;28;20183;-94
2022/01/05 07:13:08;;;;;;;3.50;3.17;;;6.40;99.90;;;;;;5058163;28;20179;-91
2022/01/05 07:15:34;;;;;;;4.07;3.50;;;6.50;99.90;;;;;;5076351;28;20179;-86
2022/01/05 07:18:00;;;;;;;4.23;3.57;;;6.40;99.90;;;;;;5074631;28;20212;-83
2022/01/05 07:20:26;;;;;;;4.77;4.13;;;6.50;99.90;;;;;;5075732;28;20264;-90
2022/01/05 07:22:52;;;;;;;5.37;4.57;;;6.60;99.90;;;;;;5076102;28;20171;-89
2022/01/05 07:25:17;;;;;;;4.23;3.83;;;6.60;99.90;;;;;;5058062;28;20186;-93
2022/01/05 07:27:43;;;;;;;4.43;3.67;;;6.50;99.90;;;;;;5076549;28;20210;-94
2022/01/05 07:30:10;;;;;;;4.63;3.53;;;6.60;99.90;;;;;;5058263;28;20179;-89
2022/01/05 07:32:36;;;;;;;4.57;3.80;;;6.60;99.90;;;;;;5085361;28;20351;-92
2022/01/05 07:35:03;;;;;;;4.30;3.20;;;6.70;99.90;;;;;;5099020;28;20183;-88
2022/01/05 07:37:29;;;;;;;4.40;3.43;;;6.70;99.90;;;;;;5097816;28;20170;-94
2022/01/05 07:39:55;;;;;;;8.40;4.37;;;6.70;99.90;;;;;;5061412;28;20173;-95
2022/01/05 07:42:21;;;;;;;4.67;3.50;;;6.70;99.90;;;;;;5059965;28;20213;-94
2022/01/05 07:44:47;;;;;;;5.07;3.80;;;6.80;99.90;;;;;;5060293;28;20175;-92
2022/01/05 07:47:13;;;;;;;4.77;3.43;;;6.90;99.90;;;;;;5061294;28;20180;-95
2022/01/05 07:49:39;;;;;;;7.53;3.50;;;6.90;99.90;;;;;;5080334;28;20179;-95
2022/01/05 07:52:05;;;;;;;4.97;3.20;;;6.90;99.90;;;;;;5077551;28;20210;-95
2022/01/05 07:54:32;;;;;;;5.37;4.30;;;6.80;99.90;;;;;;5082205;28;20174;-90
2022/01/05 07:56:58;;;;;;;5.67;3.47;;;6.90;99.90;;;;;;5079811;28;20167;-95
2022/01/05 07:59:24;;;;;;;3.97;3.57;;;6.90;99.90;;;;;;5078683;28;20167;-90
2022/01/05 08:01:50;;;;;;;6.83;3.67;;;7.00;99.90;;;;;;5077163;28;20270;-86
2022/01/05 08:04:16;;;;;;;6.90;3.63;;;7.00;99.90;;;;;;5059828;28;20176;-86
2022/01/05 08:06:42;;;;;;;6.67;3.20;;;7.10;99.90;;;;;;5061258;28;20193;-92
2022/01/05 08:09:09;;;;;;;4.07;3.40;;;7.10;99.90;;;;;;5079603;28;20252;-96
2022/01/05 08:11:35;;;;;;;4.07;3.27;;;7.20;99.90;;;;;;5081318;28;20270;-96
2022/01/05 08:14:01;;;;;;;6.67;3.50;;;7.20;99.90;;;;;;5064011;28;20277;-96
2022/01/05 08:16:26;;;;;;;5.53;3.63;;;7.40;99.90;;;;;;5064304;28;20214;-94
2022/01/05 08:18:52;;;;;;;3.90;3.20;;;7.40;99.90;;;;;;5063692;28;20173;-95
2022/01/05 08:21:19;;;;;;;6.70;3.20;;;7.50;99.90;;;;;;5082021;28;20176;-93
2022/01/05 08:23:45;;;;;;;4.70;3.93;;;7.50;99.90;;;;;;5064543;28;20184;-81
2022/01/05 08:26:10;;;;;;;5.00;3.20;;;7.50;99.90;;;;;;5081414;28;20176;-80
2022/01/05 08:28:36;;;;;;;4.53;3.50;;;7.50;99.90;;;;;;5081167;28;20235;-80
2022/01/05 08:31:03;;;;;;;5.57;3.33;;;7.60;99.90;;;;;;5058975;28;20221;-81
2022/01/05 08:33:30;;;;;;;3.87;2.87;;;7.50;99.90;;;;;;5076592;28;20299;-82
2022/01/05 08:35:56;;;;;;;3.13;2.93;;;7.60;99.90;;;;;;5057215;28;20697;-85
2022/01/05 08:38:22;;;;;;;5.63;3.00;;;7.70;99.90;;;;;;5054911;28;20191;-83
2022/01/05 08:40:49;;;;;;;3.73;3.20;;;7.80;99.90;;;;;;5072906;28;20174;-81
2022/01/05 08:43:15;;;;;;;4.20;2.90;;;7.80;99.90;;;;;;5072245;28;20316;-85
2022/01/05 08:45:43;;;;;;;3.03;2.83;;;7.90;99.90;;;;;;5072019;28;20674;-82
2022/01/05 08:48:10;;;;;;;3.20;2.90;;;7.90;99.90;;;;;;5072651;28;20185;-83
2022/01/05 08:50:37;;;;;;;3.70;2.80;;;8.10;99.90;;;;;;5072647;28;20171;-82
2022/01/05 08:53:03;;;;;;;3.30;3.00;;;8.20;99.90;;;;;;5073203;28;20669;-81
2022/01/05 08:55:39;;;;;;;3.77;3.00;;;8.10;99.90;;;;;;5072309;28;20180;-81
2022/01/05 08:58:06;;;;;;;3.67;3.13;;;8.10;99.90;;;;;;5072012;28;20173;-82
2022/01/05 09:00:32;;;;;;;5.10;3.03;;;8.10;99.90;;;;;;5072637;28;20177;-81
2022/01/05 09:02:59;;;;;;;3.63;3.23;;;8.10;99.90;;;;;;5073164;28;20176;-89
2022/01/05 09:05:25;;;;;;;4.97;3.30;;;8.10;99.90;;;;;;5072418;28;20553;-83
2022/01/05 09:07:51;;;;;;;6.40;3.00;;;8.20;99.90;;;;;;5072064;28;20906;-92
2022/01/05 09:10:17;;;;;;;7.10;2.80;;;8.20;99.90;;;;;;5076140;28;20171;-81
2022/01/05 09:12:44;;;;;;;4.17;3.00;;;8.20;99.90;;;;;;5056784;28;20208;-95
2022/01/05 09:15:10;;;;;;;4.10;3.30;;;8.20;99.90;;;;;;5073380;28;20215;-84
2022/01/05 09:17:36;;;;;;;3.67;3.10;;;8.10;99.90;;;;;;5077584;28;20217;-81
2022/01/05 09:20:03;;;;;;;4.40;3.27;;;8.00;99.90;;;;;;5080370;28;20179;-86
2022/01/05 09:22:30;;;;;;;5.70;3.30;;;7.90;99.90;;;;;;5087366;28;20177;-90
2022/01/05 09:24:56;;;;;;;3.53;3.27;;;7.90;99.90;;;;;;5089666;28;20165;-92
2022/01/05 09:27:22;;;;;;;3.53;3.20;;;7.90;99.90;;;;;;5105134;28;20234;-95
2022/01/05 09:29:48;;;;;;;2.97;2.77;;;7.80;99.90;;;;;;5112757;28;20160;-91
2022/01/05 09:32:15;;;;;;;6.60;3.20;;;7.70;99.90;;;;;;5108272;28;20242;-86
2022/01/05 09:34:42;;;;;;;3.20;2.50;;;7.70;99.90;;;;;;5074418;28;20176;-95
2022/01/05 09:37:16;;;;;;;2.40;2.20;;;7.60;99.90;;;;;;5061898;28;20542;-96
2022/01/05 09:42:26;;;;;;;1.80;1.70;;;7.60;99.90;;;;;;5078495;28;20174;-81
2022/01/05 09:44:53;;;;;;;1.70;1.60;;;7.70;99.90;;;;;;5089479;28;20180;-86
2022/01/05 09:47:30;;;;;;;1.30;1.30;;;7.80;99.90;;;;;;5083973;28;20169;-80
2022/01/05 09:50:05;;;;;;;1.10;1.03;;;7.70;99.90;;;;;;5077064;28;20187;-86
2022/01/05 09:52:32;;;;;;;1.40;0.93;;;7.70;99.90;;;;;;5077042;28;20209;-93
2022/01/05 09:54:58;;;;;;;0.90;0.90;;;7.60;99.90;;;;;;5076080;28;20227;-81
2022/01/05 09:57:24;;;;;;;0.90;0.90;;;7.60;99.90;;;;;;5073740;28;20658;-90
2022/01/05 09:59:51;;;;;;;0.90;0.90;;;7.60;99.90;;;;;;5074800;28;20181;-84
2022/01/05 10:02:19;;;;;;;0.80;0.80;;;7.50;99.90;;;;;;5073700;28;20171;-82
2022/01/05 10:04:46;;;;;;;0.80;0.80;;;7.50;99.90;;;;;;5074020;28;20262;-84
2022/01/05 10:07:12;;;;;;;2.53;0.90;;;7.40;99.90;;;;;;5072806;28;20177;-82
2022/01/05 10:09:43;;;;;;;0.90;0.90;;;7.50;99.90;;;;;;5072786;28;20558;-81
2022/01/05 10:12:10;;;;;;;0.60;0.60;;;7.40;99.90;;;;;;5075759;28;20285;-85
2022/01/05 10:14:47;;;;;;;1.00;1.00;;;7.40;99.90;;;;;;5075018;28;20163;-89
2022/01/05 10:17:15;;;;;;;0.70;0.70;;;7.40;99.90;;;;;;5077462;28;20169;-82
2022/01/05 10:19:42;;;;;;;0.80;0.80;;;7.30;99.90;;;;;;5075288;28;20167;-81
2022/01/05 10:22:26;;;;;;;0.83;0.83;;;7.30;99.90;;;;;;5073307;28;20183;-83
2022/01/05 10:24:54;;;;;;;1.33;0.73;;;7.30;99.90;;;;;;5074251;28;20173;-82
2022/01/05 10:27:22;;;;;;;1.60;1.00;;;7.30;99.90;;;;;;5073051;28;20174;-91
2022/01/05 10:29:54;;;;;;;1.10;1.00;;;7.20;99.90;;;;;;5072628;28;20186;-85
2022/01/05 10:32:20;;;;;;;0.87;0.87;;;7.20;99.90;;;;;;5071243;28;20702;-83
2022/01/05 10:35:11;;;;;;;0.93;0.93;;;7.20;99.90;;;;;;5071475;28;20171;-82
2022/01/05 10:37:42;;;;;;;2.00;1.07;;;7.30;99.90;;;;;;5071450;28;20644;-84
2022/01/05 10:40:14;;;;;;;1.20;1.20;;;7.30;99.90;;;;;;5072858;28;20167;-83
2022/01/05 10:42:44;;;;;;;0.80;0.80;;;7.40;99.90;;;;;;5075187;28;20189;-82
2022/01/05 10:45:14;;;;;;;1.47;1.40;;;7.40;99.90;;;;;;5079323;28;20155;-83
2022/01/05 10:47:41;;;;;;;1.23;0.90;;;7.40;99.90;;;;;;5074002;28;20174;-85
2022/01/05 10:50:17;;;;;;;1.10;1.10;;;7.40;99.90;;;;;;5073088;28;20525;-83
2022/01/05 10:52:55;;;;;;;1.00;1.00;;;7.30;99.90;;;;;;5074509;28;20310;-81
2022/01/05 10:55:24;;;;;;;0.90;0.90;;;7.20;99.90;;;;;;5074627;28;20497;-91
2022/01/05 10:58:04;;;;;;;0.83;0.83;;;7.30;99.90;;;;;;5077417;28;20642;-95
2022/01/05 11:00:50;;;;;;;0.87;0.80;;;7.20;99.90;;;;;;5100904;28;20273;-94
2022/01/05 11:03:27;;;;;;;2.20;1.43;;;7.30;99.90;;;;;;5083815;28;20555;-94
2022/01/05 11:06:04;;;;;;;1.10;1.00;;;7.30;99.90;;;;;;5080161;28;20170;-95
2022/01/05 11:08:44;;;;;;;1.87;1.10;;;7.40;99.90;;;;;;5099488;28;20181;-90
2022/01/05 11:11:39;;;;;;;1.30;1.20;;;7.50;99.90;;;;;;5079065;28;20670;-84
2022/01/05 11:14:10;;;;;;;1.23;1.00;;;7.50;99.90;;;;;;5102904;28;20199;-94
2022/01/05 11:16:38;;;;;;;1.20;1.10;;;7.50;99.90;;;;;;5112772;28;20160;-90
2022/01/05 11:19:33;;;;;;;1.30;1.20;;;7.40;99.90;;;;;;5084263;28;20192;-88
2022/01/05 11:22:03;;;;;;;1.30;1.30;;;7.40;99.90;;;;;;5078967;28;20182;-92
2022/01/05 11:24:38;;;;;;;1.57;1.47;;;7.40;99.90;;;;;;5096692;28;20172;-86
2022/01/05 11:27:05;;;;;;;2.33;1.43;;;7.40;99.90;;;;;;5099107;28;20171;-86
2022/01/05 11:29:33;;;;;;;1.37;1.37;;;7.40;99.90;;;;;;5079231;28;20195;-87
2022/01/05 11:32:01;;;;;;;1.30;1.30;;;7.40;99.90;;;;;;5095011;28;20239;-92
2022/01/05 11:34:29;;;;;;;1.27;1.27;;;7.50;99.90;;;;;;5084012;28;20228;-90
2022/01/05 11:36:55;;;;;;;0.97;0.97;;;7.50;99.90;;;;;;5064213;28;20163;-96
2022/01/05 11:39:21;;;;;;;1.40;1.30;;;7.50;99.90;;;;;;5058893;28;20507;-96
2022/01/05 11:41:49;;;;;;;1.20;1.20;;;7.60;99.90;;;;;;5062652;28;20237;-87
2022/01/05 11:44:17;;;;;;;1.13;1.13;;;7.70;99.90;;;;;;5056250;28;20213;-89
2022/01/05 11:46:45;;;;;;;2.13;1.20;;;7.60;99.90;;;;;;5065794;28;20169;-85
2022/01/05 11:49:14;;;;;;;1.23;1.10;;;7.70;99.90;;;;;;5054418;28;20629;-91
2022/01/05 11:51:43;;;;;;;0.90;0.90;;;7.60;99.90;;;;;;5053135;28;20216;-84
2022/01/05 11:54:37;;;;;;;1.27;1.27;;;7.70;99.90;;;;;;5054526;28;20258;-94
2022/01/05 11:57:12;;;;;;;1.13;1.13;;;7.70;99.90;;;;;;5036108;28;20171;-84
2022/01/05 11:59:42;;;;;;;1.10;1.00;;;7.70;99.90;;;;;;5062030;28;20230;-89
2022/01/05 12:02:14;;;;;;;1.10;1.10;;;7.70;99.90;;;;;;5058525;28;20166;-92
2022/01/05 12:04:52;;;;;;;1.00;1.00;;;7.80;99.90;;;;;;5065975;28;20226;-90
2022/01/05 12:07:34;;;;;;;1.20;1.20;;;7.90;99.90;;;;;;5101948;28;20194;-87
2022/01/05 12:10:09;;;;;;;1.10;1.10;;;7.80;99.90;;;;;;5084179;28;20601;-93
2022/01/05 12:12:36;;;;;;;1.30;1.27;;;7.80;99.90;;;;;;5079989;28;20299;-91
2022/01/05 12:15:03;;;;;;;1.33;1.33;;;7.80;99.90;;;;;;5076436;28;20238;-93
2022/01/05 12:17:30;;;;;;;1.47;1.30;;;7.70;99.90;;;;;;5061093;28;20533;-89
2022/01/05 12:19:56;;;;;;;1.37;1.30;;;7.80;99.90;;;;;;5080977;28;20173;-93
2022/01/05 12:22:27;;;;;;;1.80;1.70;;;7.80;99.90;;;;;;5063243;28;20191;-87
2022/01/05 12:24:53;;;;;;;1.37;1.37;;;7.80;99.90;;;;;;5077171;28;20202;-94
2022/01/05 12:27:18;;;;;;;1.40;1.30;;;7.80;99.90;;;;;;5076617;28;20804;-91
2022/01/05 12:29:46;;;;;;;1.30;1.30;;;7.80;99.90;;;;;;5075096;28;20171;-89
2022/01/05 12:32:29;;;;;;;1.43;1.43;;;7.90;99.90;;;;;;5074497;28;20238;-86
2022/01/05 12:35:00;;;;;;;1.30;1.20;;;7.80;99.90;;;;;;5077970;28;20533;-83
2022/01/05 12:37:56;;;;;;;0.87;0.87;;;7.80;99.90;;;;;;5093302;28;20173;-82
2022/01/05 12:40:22;;;;;;;1.83;1.10;;;7.80;99.90;;;;;;4991008;28;20538;-83
2022/01/05 12:43:08;;;;;;;1.20;1.20;;;7.90;99.90;;;;;;4990547;28;20411;-81
2022/01/05 12:45:58;;;;;;;1.53;1.30;;;7.90;99.90;;;;;;4990334;28;20192;-82
2022/01/05 12:48:35;;;;;;;1.20;1.20;;;7.90;99.90;;;;;;4990456;28;20174;-84
2022/01/05 12:51:34;;;;;;;3.80;3.50;;;7.80;99.90;;;;;;4973149;28;20658;-85
2022/01/05 12:54:03;;;;;;;3.50;3.20;;;7.80;99.90;;;;;;4974568;28;20282;-91
2022/01/05 12:56:42;;;;;;;2.10;1.90;;;7.70;99.90;;;;;;4991291;28;20711;-90
2022/01/05 12:59:16;;;;;;;2.20;1.90;;;7.70;99.90;;;;;;4974699;28;20181;-90
2022/01/05 13:01:44;;;;;;;1.40;1.30;;;7.70;99.90;;;;;;4960054;28;20574;-93
2022/01/05 13:04:14;;;;;;;3.70;1.20;;;7.80;99.90;;;;;;4986622;28;20199;-88
2022/01/05 13:06:42;;;;;;;0.93;0.93;;;7.80;99.90;;;;;;4980030;28;20184;-83